This is the latest recevied weather packets stored in our database for station/object DB0TGO-13. If no packets are shown the sender has not sent any weather packets the latest 10 day(s).
| Time | Temp. | Humidity | Pressure | Rain* | Wind** | Luminosity | Snow |
|---|---|---|---|---|---|---|---|
| 1778218202 | 7.22° C | 84% | 1013.8 hPa | - | - | - | - |
| 1778217302 | 7.22° C | 83% | 1013.8 hPa | - | - | - | - |
| 1778216402 | 7.22° C | 83% | 1013.8 hPa | - | - | - | - |
| 1778215503 | 6.11° C | 85% | 1013.6 hPa | - | - | - | - |
| 1778214602 | 6.11° C | 85% | 1013.6 hPa | - | - | - | - |
| 1778213702 | 6.67° C | 84% | 1013.5 hPa | - | - | - | - |
| 1778212803 | 6.67° C | 84% | 1013.5 hPa | - | - | - | - |
| 1778211902 | 7.22° C | 85% | 1013.4 hPa | - | - | - | - |
| 1778211002 | 7.22° C | 85% | 1013.4 hPa | - | - | - | - |
| 1778210103 | 7.22° C | 86% | 1013.3 hPa | - | - | - | - |
| 1778209204 | 7.22° C | 86% | 1013.3 hPa | - | - | - | - |
| 1778186703 | 8.89° C | 88% | 1012.1 hPa | - | - | - | - |
| 1778185802 | 8.89° C | 88% | 1012.1 hPa | - | - | - | - |
| 1778184902 | 8.89° C | 88% | 1011.9 hPa | - | - | - | - |
| 1778184003 | 8.89° C | 88% | 1011.9 hPa | - | - | - | - |
| 1778183102 | 8.89° C | 88% | 1011.6 hPa | - | - | - | - |
| 1778182203 | 8.89° C | 88% | 1011.6 hPa | - | - | - | - |
| 1778181302 | 8.89° C | 86% | 1011.4 hPa | - | - | - | - |
| 1778180402 | 8.89° C | 86% | 1011.4 hPa | - | - | - | - |
| 1778179503 | 8.89° C | 84% | 1011.2 hPa | - | - | - | - |
| 1778178602 | 8.89° C | 84% | 1011.2 hPa | - | - | - | - |
| 1778177702 | 9.44° C | 81% | 1010.9 hPa | - | - | - | - |
| 1778176802 | 9.44° C | 81% | 1010.9 hPa | - | - | - | - |
| 1778175903 | 9.44° C | 77% | 1010.7 hPa | - | - | - | - |
| 1778175002 | 9.44° C | 77% | 1010.7 hPa | - | - | - | - |
* Rain since midnight (hover to see other rain measurements)
** Current wind speed in m/s (hover to see current wind gust speed)